Time;durP1;ratioP1;P1;durP2;ratioP2;P2;SDS_P1;SDS_P2;PMS_P1;PMS_P2;Temp;Humidity;BMP_temperature;BMP_pressure;BME280_temperature;BME280_humidity;BME280_pressure;Samples;Min_cycle;Max_cycle;Signal;HPM_P1;HPM_P2
2023/01/20 00:00:22;;;;;;;12.05;7.50;;;1.90;88.90;;;;;;5026099;28;20132;-59
2023/01/20 00:02:49;;;;;;;12.30;7.25;;;1.90;89.00;;;;;;5027147;28;20033;-59
2023/01/20 00:05:16;;;;;;;15.38;8.00;;;1.90;89.00;;;;;;5036493;28;20057;-60
2023/01/20 00:07:43;;;;;;;13.40;8.13;;;1.90;89.00;;;;;;5011388;28;20045;-59
2023/01/20 00:10:13;;;;;;;16.08;9.43;;;1.90;89.00;;;;;;5017361;28;20088;-62
2023/01/20 00:12:42;;;;;;;15.20;9.70;;;1.90;88.80;;;;;;5019083;28;20053;-60
2023/01/20 00:15:10;;;;;;;16.02;8.80;;;1.90;88.70;;;;;;5033865;28;20086;-59
2023/01/20 00:17:38;;;;;;;16.65;9.07;;;1.90;88.80;;;;;;5024940;28;20049;-59
2023/01/20 00:20:05;;;;;;;16.90;9.65;;;1.90;88.70;;;;;;5033921;28;20401;-60
2023/01/20 00:22:33;;;;;;;17.35;9.57;;;2.00;88.60;;;;;;5034952;28;20446;-60
2023/01/20 00:24:59;;;;;;;19.70;9.80;;;2.00;88.50;;;;;;5038200;28;20086;-60
2023/01/20 00:27:34;;;;;;;17.17;10.18;;;2.00;88.30;;;;;;5027838;28;20051;-60
2023/01/20 00:30:01;;;;;;;13.82;7.97;;;1.90;88.50;;;;;;5035947;28;20705;-65
2023/01/20 00:32:30;;;;;;;16.30;9.10;;;1.90;88.60;;;;;;5036894;28;20056;-60
2023/01/20 00:34:57;;;;;;;15.95;9.10;;;1.90;88.70;;;;;;5034829;28;20056;-60
2023/01/20 00:37:24;;;;;;;16.08;9.00;;;1.90;88.70;;;;;;5035497;28;20056;-60
2023/01/20 00:39:51;;;;;;;18.02;9.52;;;1.90;88.60;;;;;;5022294;28;20143;-59
2023/01/20 00:42:17;;;;;;;16.30;9.40;;;1.80;88.70;;;;;;5034099;28;20064;-64
2023/01/20 00:44:46;;;;;;;15.98;9.18;;;1.80;88.70;;;;;;5029197;28;20119;-63
2023/01/20 00:47:12;;;;;;;14.82;8.90;;;1.80;88.80;;;;;;5019229;28;20076;-62
2023/01/20 00:49:39;;;;;;;16.15;9.10;;;1.80;88.80;;;;;;5017292;28;20047;-64
2023/01/20 00:52:06;;;;;;;18.05;10.93;;;1.90;88.70;;;;;;5030184;28;20057;-71
2023/01/20 00:54:33;;;;;;;17.58;10.25;;;1.80;88.70;;;;;;5033276;28;20045;-72
2023/01/20 00:57:00;;;;;;;15.73;10.35;;;1.80;88.70;;;;;;5027522;28;20049;-71
2023/01/20 00:59:30;;;;;;;18.15;10.05;;;1.90;88.70;;;;;;5021073;28;20046;-71
2023/01/20 01:01:58;;;;;;;14.77;9.48;;;1.90;88.60;;;;;;5028799;28;20057;-71
2023/01/20 01:04:25;;;;;;;17.35;9.30;;;1.90;88.40;;;;;;5030710;28;20041;-71
2023/01/20 01:06:52;;;;;;;14.70;9.20;;;1.80;88.40;;;;;;5039822;28;20045;-71
2023/01/20 01:09:20;;;;;;;15.50;9.52;;;1.80;88.50;;;;;;5031191;28;20167;-70
2023/01/20 01:11:48;;;;;;;16.35;9.85;;;1.80;88.50;;;;;;5037902;28;20057;-71
2023/01/20 01:14:15;;;;;;;16.15;8.90;;;1.90;88.30;;;;;;5034783;28;20060;-71
2023/01/20 01:16:42;;;;;;;18.60;9.77;;;1.90;88.30;;;;;;5028409;28;20057;-70
2023/01/20 01:19:10;;;;;;;15.10;9.77;;;1.90;88.10;;;;;;5027200;28;20065;-70
2023/01/20 01:21:37;;;;;;;16.20;9.57;;;1.90;88.10;;;;;;5033235;28;20045;-71
2023/01/20 01:24:04;;;;;;;18.10;9.93;;;1.80;88.20;;;;;;5032342;28;20050;-71
2023/01/20 01:26:33;;;;;;;18.65;10.25;;;1.80;88.20;;;;;;5033744;28;20092;-71
2023/01/20 01:28:59;;;;;;;14.52;9.48;;;1.80;88.20;;;;;;5021208;28;20860;-70
2023/01/20 01:31:26;;;;;;;15.18;9.60;;;1.80;88.20;;;;;;5031871;28;20041;-73
2023/01/20 01:33:53;;;;;;;18.25;9.32;;;1.80;88.20;;;;;;5028558;28;20053;-72
2023/01/20 01:36:21;;;;;;;16.98;9.95;;;1.80;88.00;;;;;;5018873;28;20063;-59
2023/01/20 01:38:48;;;;;;;19.17;9.75;;;1.80;88.00;;;;;;5034762;28;20407;-59
2023/01/20 01:41:17;;;;;;;14.85;8.82;;;1.80;88.10;;;;;;5025737;28;20049;-61
2023/01/20 01:44:00;;;;;;;16.67;10.50;;;1.80;88.10;;;;;;5027397;28;20053;-60
2023/01/20 01:46:28;;;;;;;15.18;9.23;;;1.80;88.30;;;;;;5022788;28;20041;-60
2023/01/20 01:48:57;;;;;;;15.60;8.90;;;1.80;88.30;;;;;;5025969;28;20067;-61
2023/01/20 01:51:28;;;;;;;17.95;9.57;;;1.80;88.30;;;;;;5036889;28;20042;-60
2023/01/20 01:53:58;;;;;;;14.00;8.75;;;1.80;88.20;;;;;;5032239;28;20419;-61
2023/01/20 01:56:30;;;;;;;15.35;8.68;;;1.80;88.20;;;;;;5039365;28;20041;-61
2023/01/20 01:59:01;;;;;;;17.60;9.18;;;1.80;88.10;;;;;;5033264;28;20049;-61
2023/01/20 02:01:37;;;;;;;15.05;8.63;;;1.80;88.10;;;;;;5026614;28;20053;-58
2023/01/20 02:04:07;;;;;;;14.90;9.18;;;1.80;88.00;;;;;;5027574;28;20049;-60
2023/01/20 02:06:38;;;;;;;16.52;9.30;;;1.80;88.00;;;;;;5036733;28;20052;-70
2023/01/20 02:09:05;;;;;;;16.05;9.45;;;1.70;88.00;;;;;;5025267;28;20046;-71
2023/01/20 02:11:37;;;;;;;15.73;9.07;;;1.70;88.10;;;;;;5029987;28;20396;-70
2023/01/20 02:14:04;;;;;;;14.30;8.68;;;1.70;88.20;;;;;;5030221;28;20050;-72
2023/01/20 02:16:43;;;;;;;15.43;9.23;;;1.70;88.30;;;;;;5035909;28;20051;-63
2023/01/20 02:19:32;;;;;;;15.23;9.30;;;1.70;88.30;;;;;;5030706;28;20049;-63
2023/01/20 02:22:08;;;;;;;14.20;8.50;;;1.70;88.30;;;;;;5037877;28;20125;-69
2023/01/20 02:25:10;;;;;;;15.73;9.20;;;1.70;88.40;;;;;;5033341;28;20045;-67
2023/01/20 02:28:12;;;;;;;15.70;8.65;;;1.70;88.40;;;;;;5035134;28;20045;-69
2023/01/20 02:31:14;;;;;;;14.88;8.70;;;1.70;88.30;;;;;;5033525;28;20056;-70
2023/01/20 02:33:48;;;;;;;16.20;8.73;;;1.70;88.30;;;;;;5029331;28;20042;-69
2023/01/20 02:36:22;;;;;;;17.20;8.95;;;1.70;88.20;;;;;;5038246;28;20495;-69
2023/01/20 02:38:56;;;;;;;18.73;9.32;;;1.70;87.90;;;;;;5033706;28;20056;-69
2023/01/20 02:41:32;;;;;;;15.82;9.45;;;1.70;87.90;;;;;;5034921;28;20049;-70
2023/01/20 02:44:03;;;;;;;18.92;9.48;;;1.70;87.90;;;;;;5027198;28;20045;-71
2023/01/20 02:46:35;;;;;;;16.55;9.70;;;1.70;87.80;;;;;;5020508;28;20049;-72
2023/01/20 02:49:14;;;;;;;14.02;8.00;;;1.60;87.80;;;;;;5032290;28;20076;-71
2023/01/20 02:51:47;;;;;;;15.40;8.38;;;1.60;87.90;;;;;;5033279;28;20053;-71
2023/01/20 02:54:16;;;;;;;16.67;8.13;;;1.60;87.80;;;;;;5037084;28;20060;-70
2023/01/20 02:56:44;;;;;;;18.55;9.80;;;1.60;87.90;;;;;;5031570;28;20044;-71
2023/01/20 02:59:14;;;;;;;15.10;8.70;;;1.60;87.90;;;;;;5022986;28;20062;-70
2023/01/20 03:01:46;;;;;;;16.02;9.05;;;1.70;87.90;;;;;;5030348;28;20059;-71
2023/01/20 03:04:20;;;;;;;16.75;8.93;;;1.60;88.00;;;;;;5019312;28;20136;-69
2023/01/20 03:06:52;;;;;;;16.33;9.05;;;1.60;88.00;;;;;;5025186;28;20099;-69
2023/01/20 03:09:25;;;;;;;14.73;9.32;;;1.60;88.00;;;;;;5022973;28;20530;-71
2023/01/20 03:11:57;;;;;;;15.98;7.93;;;1.60;88.00;;;;;;5033178;28;20044;-64
2023/01/20 03:14:24;;;;;;;17.75;9.10;;;1.70;88.00;;;;;;5025634;28;20049;-64
2023/01/20 03:16:51;;;;;;;14.40;8.30;;;1.70;87.90;;;;;;5022683;28;21005;-62
2023/01/20 03:19:20;;;;;;;14.70;8.45;;;1.70;87.80;;;;;;5035556;28;20076;-63
2023/01/20 03:21:47;;;;;;;15.30;8.75;;;1.70;87.90;;;;;;5035506;28;20462;-58
2023/01/20 03:24:14;;;;;;;15.05;8.52;;;1.70;87.90;;;;;;5037957;28;20076;-58
2023/01/20 03:26:41;;;;;;;14.98;8.77;;;1.70;87.90;;;;;;5038026;28;20144;-60
2023/01/20 03:29:11;;;;;;;17.95;8.98;;;1.60;87.90;;;;;;5023538;28;20058;-59
2023/01/20 03:31:41;;;;;;;15.17;8.03;;;1.60;87.90;;;;;;5032796;28;20049;-70
2023/01/20 03:34:11;;;;;;;13.73;8.13;;;1.70;87.90;;;;;;5039086;28;20432;-71
2023/01/20 03:36:42;;;;;;;15.55;8.05;;;1.70;88.00;;;;;;5037500;28;20052;-69
2023/01/20 03:39:09;;;;;;;12.25;7.10;;;1.70;88.00;;;;;;5025645;28;20060;-67
2023/01/20 03:41:46;;;;;;;13.48;7.35;;;1.70;88.10;;;;;;5030764;28;20046;-70
2023/01/20 03:44:22;;;;;;;13.15;7.32;;;1.70;88.10;;;;;;5023516;28;20629;-71
2023/01/20 03:46:55;;;;;;;12.13;6.68;;;1.70;88.00;;;;;;5016586;28;20045;-72
2023/01/20 03:49:30;;;;;;;14.30;7.47;;;1.70;88.00;;;;;;5027938;28;20053;-71
2023/01/20 03:52:03;;;;;;;12.88;7.00;;;1.70;88.00;;;;;;5031659;28;20049;-69
2023/01/20 03:54:36;;;;;;;12.23;6.30;;;1.70;87.90;;;;;;5016661;28;20630;-71
2023/01/20 03:57:08;;;;;;;12.50;6.95;;;1.70;88.00;;;;;;5030292;28;20059;-70
2023/01/20 03:59:39;;;;;;;15.88;7.63;;;1.70;87.90;;;;;;5035215;28;20045;-71
2023/01/20 04:02:08;;;;;;;13.60;7.50;;;1.70;87.90;;;;;;5019139;28;20052;-59
2023/01/20 04:04:38;;;;;;;14.40;7.57;;;1.70;88.00;;;;;;5028194;28;20080;-60
2023/01/20 04:07:07;;;;;;;14.20;7.93;;;1.70;87.90;;;;;;5031198;28;20041;-61
2023/01/20 04:09:39;;;;;;;12.32;7.32;;;1.70;88.00;;;;;;5026255;28;20052;-60
2023/01/20 04:12:06;;;;;;;15.32;7.90;;;1.70;88.10;;;;;;5034665;28;20045;-60
2023/01/20 04:14:35;;;;;;;17.25;8.70;;;1.70;88.20;;;;;;5030601;28;20045;-60
2023/01/20 04:17:04;;;;;;;15.02;8.15;;;1.70;88.00;;;;;;5025872;28;20045;-62
2023/01/20 04:19:31;;;;;;;13.27;7.85;;;1.70;87.90;;;;;;5028584;28;20045;-60
2023/01/20 04:22:04;;;;;;;14.23;8.23;;;1.70;87.60;;;;;;5026349;28;20061;-60
2023/01/20 04:24:37;;;;;;;14.75;7.97;;;1.70;87.50;;;;;;5031087;28;21037;-59
2023/01/20 04:27:04;;;;;;;15.10;8.75;;;1.70;87.50;;;;;;5020419;28;20060;-60
2023/01/20 04:29:31;;;;;;;15.45;8.60;;;1.70;87.50;;;;;;5021709;28;21108;-59
2023/01/20 04:32:01;;;;;;;15.30;7.88;;;1.70;87.40;;;;;;5030892;28;21284;-58
2023/01/20 04:34:28;;;;;;;;;;;1.70;87.20;;;;;;5030674;28;20045;-59
2023/01/20 04:36:55;;;;;;;13.77;7.20;;;1.70;87.00;;;;;;5032358;28;19925;-58
2023/01/20 04:39:22;;;;;;;13.77;7.28;;;1.70;87.00;;;;;;5028850;28;20072;-58
2023/01/20 04:41:50;;;;;;;16.27;7.78;;;1.70;87.10;;;;;;5026773;28;20061;-63
2023/01/20 04:44:17;;;;;;;14.30;7.30;;;1.60;86.80;;;;;;5022178;28;20049;-64
2023/01/20 04:46:46;;;;;;;14.90;7.88;;;1.70;86.80;;;;;;5032519;28;20046;-60
2023/01/20 04:49:28;;;;;;;17.65;8.50;;;1.70;86.70;;;;;;5022165;28;20068;-60
2023/01/20 04:51:54;;;;;;;15.43;7.57;;;1.70;86.70;;;;;;5032998;28;20140;-62
2023/01/20 04:54:21;;;;;;;17.10;9.15;;;1.70;86.70;;;;;;5027151;28;20122;-64
2023/01/20 04:56:49;;;;;;;18.67;8.38;;;1.70;86.70;;;;;;5025894;28;20048;-57
2023/01/20 04:59:16;;;;;;;17.95;8.85;;;1.70;86.80;;;;;;5028218;28;20060;-60
2023/01/20 05:01:43;;;;;;;14.63;8.20;;;1.70;86.90;;;;;;5030898;28;20041;-60
2023/01/20 05:04:12;;;;;;;13.85;7.53;;;1.70;86.80;;;;;;5024097;28;20064;-61
2023/01/20 05:06:41;;;;;;;16.98;8.48;;;1.60;86.80;;;;;;5032472;28;20076;-62
2023/01/20 05:09:10;;;;;;;15.43;8.65;;;1.60;86.80;;;;;;5032809;28;20049;-60
2023/01/20 05:11:37;;;;;;;14.00;8.10;;;1.60;86.60;;;;;;5030665;28;20127;-67
2023/01/20 05:14:05;;;;;;;15.77;8.52;;;1.60;86.60;;;;;;5026897;28;20146;-68
2023/01/20 05:16:33;;;;;;;16.80;8.27;;;1.60;86.60;;;;;;5030620;28;20048;-63
2023/01/20 05:19:01;;;;;;;16.05;8.07;;;1.60;86.70;;;;;;5027995;28;20223;-63
2023/01/20 05:21:28;;;;;;;17.58;8.68;;;1.60;86.60;;;;;;5019180;28;20127;-64
2023/01/20 05:23:56;;;;;;;16.60;8.35;;;1.60;86.80;;;;;;5035626;28;20053;-63
2023/01/20 05:26:24;;;;;;;17.27;8.95;;;1.60;86.80;;;;;;5030406;28;20049;-58
2023/01/20 05:28:51;;;;;;;17.35;9.05;;;1.60;86.70;;;;;;5031168;28;20153;-59
2023/01/20 05:31:19;;;;;;;14.68;8.02;;;1.60;86.70;;;;;;5031301;28;20053;-59
2023/01/20 05:33:46;;;;;;;16.58;8.27;;;1.60;86.80;;;;;;5030427;28;20057;-60
2023/01/20 05:36:13;;;;;;;18.30;8.68;;;1.70;86.70;;;;;;5033807;28;20057;-63
2023/01/20 05:38:40;;;;;;;16.73;8.23;;;1.60;86.50;;;;;;5032482;28;20056;-63
2023/01/20 05:41:09;;;;;;;14.70;8.50;;;1.60;86.50;;;;;;5028954;28;20050;-63
2023/01/20 05:43:36;;;;;;;14.63;8.32;;;1.60;86.60;;;;;;5033857;28;20053;-64
2023/01/20 05:46:03;;;;;;;14.15;8.63;;;1.50;86.70;;;;;;5027912;28;20042;-61
2023/01/20 05:48:31;;;;;;;16.73;9.10;;;1.60;86.60;;;;;;5023191;28;20091;-61
2023/01/20 05:51:00;;;;;;;15.63;8.70;;;1.60;86.50;;;;;;5020739;28;20053;-61
2023/01/20 05:53:28;;;;;;;19.98;10.15;;;1.60;86.40;;;;;;5031011;28;20551;-61
2023/01/20 05:56:05;;;;;;;16.33;8.77;;;1.50;86.50;;;;;;5029525;28;20045;-60
2023/01/20 05:58:34;;;;;;;16.60;9.38;;;1.60;86.50;;;;;;5035701;28;20052;-60
2023/01/20 06:01:05;;;;;;;17.80;9.35;;;1.60;86.60;;;;;;5024486;28;20095;-59
2023/01/20 06:03:34;;;;;;;14.65;8.60;;;1.60;86.50;;;;;;5028288;28;20053;-59
2023/01/20 06:06:01;;;;;;;18.05;9.15;;;1.60;86.60;;;;;;5028404;28;20045;-60
2023/01/20 06:08:33;;;;;;;15.55;8.43;;;1.60;86.40;;;;;;5033540;28;20056;-58
2023/01/20 06:11:00;;;;;;;17.30;9.40;;;1.50;86.20;;;;;;5031296;28;20057;-59
2023/01/20 06:13:29;;;;;;;15.55;8.27;;;1.60;86.10;;;;;;5034312;28;20044;-61
2023/01/20 06:15:56;;;;;;;15.98;8.85;;;1.60;86.10;;;;;;5029464;28;20060;-61
2023/01/20 06:18:24;;;;;;;15.70;9.13;;;1.60;86.10;;;;;;5031588;28;20120;-61
2023/01/20 06:20:56;;;;;;;15.57;8.30;;;1.60;86.00;;;;;;5025084;28;20037;-71
2023/01/20 06:23:23;;;;;;;17.77;8.60;;;1.60;85.90;;;;;;5027515;28;20136;-71
2023/01/20 06:25:58;;;;;;;15.38;8.75;;;1.60;85.80;;;;;;5035311;28;20055;-72
2023/01/20 06:28:25;;;;;;;15.10;7.57;;;1.60;85.70;;;;;;5035278;28;20045;-71
2023/01/20 06:30:51;;;;;;;14.52;7.50;;;1.60;85.80;;;;;;5026232;28;20050;-63
2023/01/20 06:33:18;;;;;;;14.75;8.02;;;1.60;85.60;;;;;;5030356;28;20061;-64
2023/01/20 06:35:45;;;;;;;15.40;7.95;;;1.60;85.70;;;;;;5032795;28;20489;-60
2023/01/20 06:38:14;;;;;;;14.70;8.60;;;1.50;85.80;;;;;;5029208;28;20041;-60
2023/01/20 06:40:41;;;;;;;12.80;7.68;;;1.50;85.70;;;;;;5022316;28;20044;-60
2023/01/20 06:43:09;;;;;;;15.73;7.55;;;1.50;85.80;;;;;;5035248;28;20056;-60
2023/01/20 06:45:37;;;;;;;12.95;6.97;;;1.50;85.70;;;;;;5025170;28;20571;-60
2023/01/20 06:48:05;;;;;;;12.93;6.10;;;1.50;85.70;;;;;;5031657;28;20038;-64
2023/01/20 06:50:31;;;;;;;13.77;7.05;;;1.50;85.80;;;;;;5017257;28;20060;-63
2023/01/20 06:52:58;;;;;;;15.95;8.07;;;1.50;86.10;;;;;;5045748;28;20041;-64
2023/01/20 06:55:27;;;;;;;14.15;7.28;;;1.50;86.20;;;;;;5031345;28;20506;-63
2023/01/20 06:57:54;;;;;;;13.25;7.25;;;1.50;86.00;;;;;;5033514;28;20052;-63
2023/01/20 07:00:22;;;;;;;13.43;6.80;;;1.50;85.90;;;;;;5031271;28;22803;-63
2023/01/20 07:02:49;;;;;;;12.48;6.90;;;1.40;85.90;;;;;;5038036;28;20576;-64
2023/01/20 07:05:16;;;;;;;14.30;7.38;;;1.50;86.00;;;;;;5032815;28;20045;-63
2023/01/20 07:07:44;;;;;;;12.05;6.93;;;1.50;86.00;;;;;;5021981;28;20049;-63
2023/01/20 07:10:12;;;;;;;15.70;8.52;;;1.60;86.00;;;;;;5022811;28;20107;-63
2023/01/20 07:12:40;;;;;;;14.57;7.90;;;1.50;85.90;;;;;;5034921;28;20061;-68
2023/01/20 07:15:08;;;;;;;15.70;8.00;;;1.50;86.10;;;;;;5029841;28;20049;-69
2023/01/20 07:17:35;;;;;;;14.73;7.97;;;1.50;86.10;;;;;;5027311;28;20044;-59
2023/01/20 07:20:02;;;;;;;13.25;8.05;;;1.50;86.00;;;;;;5034323;28;20044;-60
2023/01/20 07:22:30;;;;;;;16.65;8.43;;;1.50;85.90;;;;;;5033760;28;20045;-61
2023/01/20 07:24:57;;;;;;;14.90;8.15;;;1.50;85.80;;;;;;5031680;28;20479;-61
2023/01/20 07:27:24;;;;;;;15.15;8.80;;;1.50;85.80;;;;;;5035997;28;20074;-60
2023/01/20 07:29:53;;;;;;;15.55;8.13;;;1.50;85.90;;;;;;5034218;28;20041;-61
2023/01/20 07:32:20;;;;;;;16.60;8.82;;;1.50;85.90;;;;;;5030921;28;20511;-60
2023/01/20 07:34:47;;;;;;;16.27;9.13;;;1.50;86.00;;;;;;5033760;28;20037;-61
2023/01/20 07:37:14;;;;;;;15.38;9.15;;;1.50;85.90;;;;;;5043880;28;20056;-61
2023/01/20 07:39:41;;;;;;;15.35;8.35;;;1.50;86.00;;;;;;5031996;28;20156;-61
2023/01/20 07:42:07;;;;;;;16.80;9.57;;;1.50;85.90;;;;;;5026040;28;20076;-60
2023/01/20 07:44:36;;;;;;;17.42;9.07;;;1.50;85.90;;;;;;5034985;28;20099;-62
2023/01/20 07:47:04;;;;;;;17.45;9.20;;;1.60;85.80;;;;;;5034848;28;20053;-60
2023/01/20 07:49:31;;;;;;;15.77;8.90;;;1.50;85.70;;;;;;5030920;28;20053;-60
2023/01/20 07:51:57;;;;;;;15.35;8.80;;;1.50;85.80;;;;;;5024292;28;20055;-72
2023/01/20 07:54:24;;;;;;;17.55;9.50;;;1.50;85.70;;;;;;5036948;28;20045;-71
2023/01/20 07:56:51;;;;;;;16.25;9.27;;;1.50;85.80;;;;;;5030814;28;20509;-60
2023/01/20 07:59:18;;;;;;;19.15;9.38;;;1.50;85.80;;;;;;5028537;28;20072;-59
2023/01/20 08:01:45;;;;;;;16.40;9.35;;;1.50;85.80;;;;;;5020823;28;20048;-67
2023/01/20 08:04:13;;;;;;;15.68;9.43;;;1.50;85.80;;;;;;5030511;28;20053;-68
2023/01/20 08:06:40;;;;;;;15.35;8.73;;;1.50;85.90;;;;;;5033175;28;20046;-68
2023/01/20 08:09:10;;;;;;;16.02;8.80;;;1.60;85.90;;;;;;5031970;28;20053;-69
2023/01/20 08:11:38;;;;;;;15.23;9.27;;;1.60;85.90;;;;;;5026040;28;20060;-59
2023/01/20 08:14:05;;;;;;;19.48;9.93;;;1.60;85.80;;;;;;5029783;28;20048;-60
2023/01/20 08:16:32;;;;;;;20.23;9.82;;;1.60;85.90;;;;;;5030580;28;20466;-71
2023/01/20 08:18:59;;;;;;;20.38;11.15;;;1.60;85.90;;;;;;5034353;28;20048;-71
2023/01/20 08:21:29;;;;;;;24.70;13.35;;;1.70;85.80;;;;;;5019011;28;20049;-63
2023/01/20 08:23:57;;;;;;;20.80;11.50;;;1.70;85.80;;;;;;5024014;28;20164;-62
2023/01/20 08:26:26;;;;;;;18.63;11.90;;;1.70;85.80;;;;;;5013606;28;20049;-62
2023/01/20 08:28:54;;;;;;;18.20;10.55;;;1.70;85.80;;;;;;5031671;28;20068;-63
2023/01/20 08:31:23;;;;;;;18.23;10.82;;;1.70;85.80;;;;;;5026127;28;20454;-59
2023/01/20 08:33:53;;;;;;;20.73;11.57;;;1.70;85.70;;;;;;5031872;28;20052;-59
2023/01/20 08:36:22;;;;;;;26.85;13.48;;;1.70;85.70;;;;;;5031216;28;20053;-59
2023/01/20 08:38:50;;;;;;;20.98;11.88;;;1.70;85.50;;;;;;5031757;28;20045;-58
2023/01/20 08:41:19;;;;;;;21.88;12.50;;;1.70;85.60;;;;;;5024176;28;20041;-70
2023/01/20 08:43:46;;;;;;;33.22;14.98;;;1.70;85.50;;;;;;5026728;28;20118;-72
2023/01/20 08:46:14;;;;;;;25.60;14.15;;;1.80;85.50;;;;;;5012650;28;20057;-70
2023/01/20 08:48:43;;;;;;;26.05;14.45;;;1.80;85.50;;;;;;5034867;28;20052;-71
2023/01/20 08:51:12;;;;;;;25.77;13.48;;;1.80;85.50;;;;;;5023338;28;20073;-58
2023/01/20 08:53:40;;;;;;;20.58;12.30;;;1.80;85.50;;;;;;5019569;28;20057;-59
2023/01/20 08:56:09;;;;;;;20.08;11.25;;;1.80;85.40;;;;;;5034194;28;20099;-59
2023/01/20 08:58:36;;;;;;;17.30;10.65;;;1.80;85.40;;;;;;5023196;28;20057;-58
2023/01/20 09:01:08;;;;;;;17.40;10.48;;;1.80;85.40;;;;;;5012071;28;20056;-67
2023/01/20 09:03:35;;;;;;;17.88;10.48;;;1.80;85.40;;;;;;5026225;28;20048;-69
2023/01/20 09:06:03;;;;;;;18.20;10.95;;;1.90;85.40;;;;;;5029328;28;20049;-68
2023/01/20 09:08:30;;;;;;;17.83;10.27;;;1.90;85.50;;;;;;5026753;28;20073;-69
2023/01/20 09:11:03;;;;;;;19.10;9.95;;;1.90;85.30;;;;;;5017733;28;20140;-67
2023/01/20 09:13:31;;;;;;;16.67;9.45;;;1.90;85.30;;;;;;5038141;28;20049;-68
2023/01/20 09:15:59;;;;;;;14.18;8.45;;;1.90;85.30;;;;;;5031232;28;20496;-69
2023/01/20 09:18:26;;;;;;;16.55;9.52;;;1.90;85.20;;;;;;5033969;28;20068;-68
2023/01/20 09:20:53;;;;;;;15.65;8.75;;;1.90;85.20;;;;;;5037140;28;20076;-60
2023/01/20 09:23:20;;;;;;;15.90;8.95;;;1.90;85.10;;;;;;5038081;28;20049;-61
2023/01/20 09:25:47;;;;;;;14.82;8.20;;;1.90;85.20;;;;;;5032229;28;20093;-59
2023/01/20 09:28:14;;;;;;;14.73;8.90;;;2.00;85.10;;;;;;5027878;28;20092;-60
2023/01/20 09:30:42;;;;;;;15.07;9.10;;;2.00;85.00;;;;;;5029599;28;20037;-60
2023/01/20 09:33:10;;;;;;;16.13;8.73;;;2.00;85.00;;;;;;5032803;28;20049;-62
2023/01/20 09:35:37;;;;;;;14.80;9.00;;;2.00;85.00;;;;;;5036741;28;20048;-59
2023/01/20 09:43:55;;;;;;;14.95;8.43;;;2.20;84.90;;;;;;5035391;28;20110;-61
2023/01/20 09:46:32;;;;;;;17.95;8.70;;;2.10;84.80;;;;;;5028724;28;20412;-68
2023/01/20 09:54:55;;;;;;;17.15;8.57;;;2.20;84.70;;;;;;5020110;28;20068;-61
2023/01/20 09:57:24;;;;;;;15.23;8.88;;;2.20;84.60;;;;;;5033738;28;20057;-64
2023/01/20 10:00:03;;;;;;;13.10;8.13;;;2.20;84.60;;;;;;5027330;28;20041;-64
2023/01/20 10:02:36;;;;;;;14.95;8.23;;;2.20;84.50;;;;;;5025059;28;20441;-63
2023/01/20 10:05:12;;;;;;;14.88;7.97;;;2.20;84.30;;;;;;5025093;28;20045;-65
2023/01/20 10:07:45;;;;;;;15.23;8.15;;;2.20;84.50;;;;;;5032695;28;20103;-65
2023/01/20 10:10:19;;;;;;;14.00;8.13;;;2.20;84.30;;;;;;5034770;28;20057;-64
2023/01/20 10:12:51;;;;;;;16.05;8.70;;;2.30;84.40;;;;;;5031562;28;20061;-64
2023/01/20 10:15:22;;;;;;;15.50;8.60;;;2.30;84.40;;;;;;5030147;28;20059;-63
2023/01/20 10:17:56;;;;;;;13.77;8.32;;;2.30;84.10;;;;;;5033014;28;20056;-64
2023/01/20 10:20:30;;;;;;;16.92;9.43;;;2.20;84.00;;;;;;5026811;28;20045;-63
2023/01/20 10:23:01;;;;;;;16.88;10.13;;;2.20;84.30;;;;;;5034765;28;20057;-64
2023/01/20 10:25:38;;;;;;;25.67;14.43;;;2.30;84.20;;;;;;5031837;28;20053;-61
2023/01/20 10:28:11;;;;;;;20.77;12.20;;;2.30;84.20;;;;;;5022785;28;20049;-60
2023/01/20 10:30:38;;;;;;;21.35;12.45;;;2.20;84.10;;;;;;5033815;28;20049;-58
2023/01/20 10:33:10;;;;;;;18.75;11.10;;;2.30;84.30;;;;;;5033453;28;20050;-58
2023/01/20 10:35:39;;;;;;;18.58;10.02;;;2.30;84.30;;;;;;5030437;28;20404;-58
2023/01/20 10:38:08;;;;;;;13.55;9.27;;;2.40;84.40;;;;;;5035771;28;20491;-59
2023/01/20 10:40:41;;;;;;;16.42;9.32;;;2.40;84.40;;;;;;5033200;28;20049;-62
2023/01/20 10:43:12;;;;;;;21.05;11.13;;;2.40;84.30;;;;;;5039134;28;20053;-63
2023/01/20 10:46:01;;;;;;;23.25;13.43;;;2.50;84.30;;;;;;5017855;28;20049;-61
2023/01/20 10:48:44;;;;;;;34.75;17.88;;;2.50;84.20;;;;;;5015627;28;20054;-60
2023/01/20 10:51:17;;;;;;;26.77;14.80;;;2.50;84.30;;;;;;5033084;28;20041;-68
2023/01/20 10:53:53;;;;;;;20.73;11.07;;;2.50;84.40;;;;;;5040872;28;20519;-68
2023/01/20 10:56:35;;;;;;;19.10;10.35;;;2.50;84.30;;;;;;5019731;28;20403;-61
2023/01/20 10:59:07;;;;;;;19.92;11.98;;;2.50;84.10;;;;;;5031581;28;20055;-64
2023/01/20 11:01:36;;;;;;;22.98;12.38;;;2.50;84.10;;;;;;5034540;28;20061;-61
2023/01/20 11:04:04;;;;;;;21.52;10.98;;;2.60;84.00;;;;;;5034371;28;20054;-61
2023/01/20 11:06:32;;;;;;;16.00;9.80;;;2.60;84.00;;;;;;5036311;28;20048;-60
2023/01/20 11:09:14;;;;;;;20.27;10.60;;;2.70;84.00;;;;;;5031952;28;20057;-61
2023/01/20 11:11:41;;;;;;;18.40;9.43;;;2.70;83.80;;;;;;5031221;28;20096;-68
2023/01/20 11:14:08;;;;;;;15.65;9.18;;;2.80;83.50;;;;;;5037091;28;20132;-67
2023/01/20 11:16:36;;;;;;;22.08;11.93;;;2.70;83.50;;;;;;5028525;28;20499;-69
2023/01/20 11:19:06;;;;;;;21.30;12.30;;;2.70;83.60;;;;;;5029895;28;20053;-69
2023/01/20 11:21:35;;;;;;;19.95;11.18;;;2.70;83.60;;;;;;5030177;28;20507;-72
2023/01/20 11:24:04;;;;;;;22.83;10.48;;;2.70;83.80;;;;;;5030986;28;20047;-71
2023/01/20 11:26:33;;;;;;;21.15;11.35;;;2.70;83.80;;;;;;5032926;28;20519;-58
2023/01/20 11:29:03;;;;;;;19.92;10.70;;;2.70;83.80;;;;;;5036621;28;20049;-58
2023/01/20 11:31:49;;;;;;;25.45;10.95;;;2.80;83.70;;;;;;5034426;28;20450;-59
2023/01/20 11:34:25;;;;;;;17.88;9.55;;;2.90;83.60;;;;;;5032033;28;20037;-58
2023/01/20 11:37:19;;;;;;;16.42;9.32;;;2.90;83.50;;;;;;5035606;28;20041;-58
2023/01/20 11:39:59;;;;;;;15.93;8.43;;;2.90;83.60;;;;;;5036337;28;20056;-59
2023/01/20 11:42:27;;;;;;;16.35;8.90;;;2.90;83.40;;;;;;5022921;28;20103;-58
2023/01/20 11:44:57;;;;;;;17.02;9.50;;;2.90;83.30;;;;;;5025996;28;20056;-59
2023/01/20 11:47:26;;;;;;;14.70;9.07;;;2.90;83.30;;;;;;5020981;28;20131;-59
2023/01/20 11:50:23;;;;;;;15.63;8.95;;;2.90;83.20;;;;;;5031973;28;20056;-58
2023/01/20 11:52:50;;;;;;;12.80;7.47;;;2.90;83.30;;;;;;5027877;28;20041;-59
2023/01/20 11:55:20;;;;;;;16.35;8.25;;;2.90;83.20;;;;;;5035410;28;20065;-64
2023/01/20 11:57:51;;;;;;;15.55;8.48;;;3.00;83.00;;;;;;5028149;28;20060;-63
2023/01/20 12:00:36;;;;;;;13.90;7.80;;;3.00;82.80;;;;;;5034409;28;20103;-63
2023/01/20 12:03:20;;;;;;;13.85;8.10;;;3.00;82.60;;;;;;5033101;28;20508;-63
2023/01/20 12:05:54;;;;;;;12.45;7.32;;;3.00;82.70;;;;;;5026857;28;20111;-63
2023/01/20 12:08:27;;;;;;;14.82;7.90;;;3.10;82.60;;;;;;5027935;28;20085;-63
2023/01/20 12:10:56;;;;;;;16.92;8.38;;;3.10;82.30;;;;;;5016924;28;20061;-64
2023/01/20 12:13:28;;;;;;;13.05;8.00;;;3.10;82.50;;;;;;5031021;28;20504;-63
2023/01/20 12:16:00;;;;;;;15.02;8.38;;;3.20;82.50;;;;;;5033067;28;20475;-67
2023/01/20 12:18:36;;;;;;;16.42;9.13;;;3.30;82.40;;;;;;5033138;28;20132;-69
2023/01/20 12:21:17;;;;;;;13.35;8.00;;;3.30;82.50;;;;;;5026041;28;20063;-67
2023/01/20 12:23:47;;;;;;;14.60;8.30;;;3.30;82.10;;;;;;5036221;28;20058;-68
2023/01/20 12:26:16;;;;;;;13.45;8.18;;;3.30;82.10;;;;;;5036220;28;20055;-69
2023/01/20 12:28:50;;;;;;;14.02;7.78;;;3.30;82.00;;;;;;5037780;28;20041;-68
2023/01/20 12:31:19;;;;;;;13.55;7.68;;;3.30;82.00;;;;;;5034672;28;20053;-69
2023/01/20 12:33:49;;;;;;;11.85;7.68;;;3.30;82.00;;;;;;5034892;28;20045;-68
2023/01/20 12:36:46;;;;;;;17.80;8.25;;;3.40;82.00;;;;;;5030654;28;20052;-58
2023/01/20 12:39:26;;;;;;;13.30;7.35;;;3.40;81.90;;;;;;5029193;28;20037;-59
2023/01/20 12:42:04;;;;;;;;;;;3.40;82.00;;;;;;5032370;28;20051;-64
2023/01/20 12:44:38;;;;;;;15.57;8.40;;;3.50;81.90;;;;;;5027271;28;20284;-64
2023/01/20 12:47:16;;;;;;;15.52;8.85;;;3.50;81.90;;;;;;5029475;28;20059;-63
2023/01/20 12:49:58;;;;;;;13.75;7.88;;;3.50;81.70;;;;;;5033684;28;20126;-65
2023/01/20 12:52:42;;;;;;;15.50;8.73;;;3.50;81.50;;;;;;5034429;28;20056;-64
2023/01/20 12:55:23;;;;;;;13.98;8.30;;;3.50;81.60;;;;;;5030471;28;20139;-64
2023/01/20 12:58:12;;;;;;;14.73;9.15;;;3.50;81.70;;;;;;5028460;28;20049;-63
2023/01/20 13:00:52;;;;;;;16.13;8.55;;;3.50;81.40;;;;;;5028784;28;20055;-65
2023/01/20 13:03:47;;;;;;;14.43;7.90;;;3.50;81.50;;;;;;5026030;28;20465;-65
2023/01/20 13:06:38;;;;;;;14.18;8.02;;;3.50;81.60;;;;;;5032924;28;20052;-60
2023/01/20 13:09:17;;;;;;;14.13;8.48;;;3.50;81.20;;;;;;5027437;28;20155;-61
2023/01/20 13:11:57;;;;;;;16.27;8.85;;;3.50;81.30;;;;;;5031823;28;20042;-58
2023/01/20 13:14:31;;;;;;;14.50;8.70;;;3.50;81.40;;;;;;5021584;28;20051;-58